createdAt,value
2023-03-16T00:00:21.757Z,62.25
2023-03-16T00:03:10.961Z,62.68
2023-03-16T00:05:38.875Z,62.63
2023-03-16T00:08:06.666Z,62.59
2023-03-16T00:10:34.738Z,62.78
2023-03-16T00:13:02.934Z,62.63
2023-03-16T00:15:30.708Z,62.78
2023-03-16T00:17:58.451Z,62.68
2023-03-16T00:20:27.880Z,62.46
2023-03-16T00:22:55.820Z,62.09
2023-03-16T00:25:24.375Z,62.23
2023-03-16T00:27:52.422Z,62.33
2023-03-16T00:30:20.170Z,62.26
2023-03-16T00:32:47.922Z,62.25
2023-03-16T00:35:18.317Z,62.20
2023-03-16T00:37:46.182Z,62.25
2023-03-16T00:40:15.288Z,62.18
2023-03-16T00:42:44.327Z,62.11
2023-03-16T00:45:12.294Z,62.34
2023-03-16T00:47:40.024Z,62.70
2023-03-16T00:50:08.352Z,62.79
2023-03-16T00:52:36.098Z,62.84
2023-03-16T00:55:04.809Z,62.93
2023-03-16T00:57:32.792Z,62.98
2023-03-16T01:00:02.284Z,63.35
2023-03-16T01:02:30.037Z,63.76
2023-03-16T01:04:58.469Z,64.01
2023-03-16T01:07:26.954Z,64.28
2023-03-16T01:09:54.745Z,64.31
2023-03-16T01:12:22.757Z,64.12
2023-03-16T01:14:50.518Z,63.96
2023-03-16T01:17:18.445Z,63.91
2023-03-16T01:19:46.488Z,64.17
2023-03-16T01:22:15.172Z,64.37
2023-03-16T01:24:47.014Z,64.46
2023-03-16T01:27:15.145Z,64.38
2023-03-16T01:29:43.830Z,64.51
2023-03-16T01:32:12.937Z,64.53
2023-03-16T01:34:41.569Z,64.32
2023-03-16T01:37:09.825Z,64.42
2023-03-16T01:39:43.782Z,64.34
2023-03-16T01:42:13.872Z,64.39
2023-03-16T01:45:05.922Z,64.32
2023-03-16T01:47:39.544Z,64.17
2023-03-16T01:50:13.980Z,64.04
2023-03-16T01:52:43.117Z,64.13
2023-03-16T01:55:13.475Z,64.17
2023-03-16T01:57:44.080Z,64.40
2023-03-16T02:00:22.085Z,64.56
2023-03-16T02:03:06.249Z,64.38
2023-03-16T02:06:01.537Z,64.33
2023-03-16T02:08:31.628Z,64.32
2023-03-16T02:11:00.123Z,64.16
2023-03-16T02:13:38.535Z,64.07
2023-03-16T02:16:07.825Z,64.28
2023-03-16T02:18:36.316Z,64.67
2023-03-16T02:21:04.326Z,64.81
2023-03-16T02:23:33.164Z,64.93
2023-03-16T02:26:22.986Z,64.93
2023-03-16T02:29:01.297Z,65.09
2023-03-16T02:31:30.599Z,65.25
2023-03-16T02:33:59.262Z,65.22
2023-03-16T02:36:27.847Z,65.43
2023-03-16T02:38:55.669Z,65.00
2023-03-16T02:41:23.905Z,65.08
2023-03-16T02:44:10.890Z,64.76
2023-03-16T02:46:43.475Z,64.79
2023-03-16T02:49:20.744Z,64.78
2023-03-16T02:51:48.586Z,64.83
2023-03-16T02:54:19.073Z,64.88
2023-03-16T02:56:46.924Z,64.80
2023-03-16T02:59:15.109Z,65.23
2023-03-16T03:01:42.937Z,65.43
2023-03-16T03:04:11.568Z,65.69
2023-03-16T03:06:39.783Z,65.67
2023-03-16T03:09:11.604Z,65.76
2023-03-16T03:11:41.384Z,65.74
2023-03-16T03:14:09.193Z,66.02
2023-03-16T03:16:37.906Z,66.15
2023-03-16T03:19:05.846Z,65.99
2023-03-16T03:21:36.801Z,65.80
2023-03-16T03:24:06.097Z,65.93
2023-03-16T03:26:35.306Z,66.02
2023-03-16T03:29:04.444Z,65.82
2023-03-16T03:31:34.138Z,65.96
2023-03-16T03:34:06.772Z,65.91
2023-03-16T03:36:36.248Z,65.42
2023-03-16T03:39:05.273Z,65.24
2023-03-16T03:41:33.945Z,65.48
2023-03-16T03:44:04.439Z,65.53
2023-03-16T03:46:32.684Z,65.50
2023-03-16T03:49:03.837Z,65.56
2023-03-16T03:51:33.868Z,65.47
2023-03-16T03:54:11.897Z,65.38
2023-03-16T03:56:56.067Z,65.43
2023-03-16T03:59:24.129Z,65.82
2023-03-16T04:02:05.541Z,65.93
2023-03-16T04:04:41.691Z,66.22
2023-03-16T04:07:11.354Z,66.24
2023-03-16T04:09:41.934Z,66.63
2023-03-16T04:12:12.272Z,66.28
2023-03-16T04:14:40.071Z,66.46
2023-03-16T04:17:09.334Z,66.15
2023-03-16T04:19:39.924Z,66.12
2023-03-16T04:22:13.012Z,65.92
2023-03-16T04:24:43.222Z,65.59
2023-03-16T04:27:12.512Z,65.24
2023-03-16T04:29:40.951Z,65.21
2023-03-16T04:32:09.844Z,65.09
2023-03-16T04:34:42.125Z,65.54
2023-03-16T04:37:10.498Z,65.24
2023-03-16T04:39:44.088Z,65.42
2023-03-16T04:42:12.562Z,65.62
2023-03-16T04:44:44.471Z,65.56
2023-03-16T04:47:15.632Z,65.47
2023-03-16T04:49:44.923Z,65.32
2023-03-16T04:52:13.627Z,65.07
2023-03-16T04:54:41.814Z,64.90
2023-03-16T04:57:10.685Z,64.66
2023-03-16T04:59:45.434Z,64.74
2023-03-16T05:02:20.973Z,64.63
2023-03-16T05:04:49.553Z,64.34
2023-03-16T05:07:18.273Z,64.22
2023-03-16T05:09:50.007Z,63.96
2023-03-16T05:12:18.305Z,63.65
2023-03-16T05:14:46.286Z,63.43
2023-03-16T05:17:22.241Z,63.36
2023-03-16T05:19:50.690Z,63.16
2023-03-16T05:22:19.265Z,63.18
2023-03-16T05:25:05.695Z,63.09
2023-03-16T05:27:35.197Z,63.26
2023-03-16T05:30:03.995Z,63.52
2023-03-16T05:32:32.689Z,63.35
2023-03-16T05:35:00.568Z,63.33
2023-03-16T05:37:29.023Z,63.57
2023-03-16T05:39:58.641Z,63.91
2023-03-16T05:42:29.568Z,64.09
2023-03-16T05:45:01.691Z,64.10
2023-03-16T05:47:37.893Z,64.16
2023-03-16T05:50:11.211Z,64.17
2023-03-16T05:52:40.574Z,64.01
2023-03-16T05:55:16.230Z,63.90
2023-03-16T05:57:45.378Z,63.79
2023-03-16T06:00:15.914Z,63.81
2023-03-16T06:02:49.411Z,63.66
2023-03-16T06:05:19.746Z,63.88
2023-03-16T06:07:50.194Z,64.01
2023-03-16T06:10:19.237Z,63.83
2023-03-16T06:12:47.289Z,63.99
2023-03-16T06:15:15.158Z,63.97
2023-03-16T06:17:43.180Z,64.28
2023-03-16T06:20:13.450Z,64.54
2023-03-16T06:22:42.900Z,64.13
2023-03-16T06:25:12.757Z,64.06
2023-03-16T06:27:42.616Z,64.13
2023-03-16T06:30:14.174Z,64.30
2023-03-16T06:32:42.538Z,64.19
2023-03-16T06:35:10.435Z,63.76
2023-03-16T06:37:41.557Z,63.66
2023-03-16T06:40:32.144Z,63.72
2023-03-16T06:43:00.588Z,63.74
2023-03-16T06:45:28.554Z,63.65
2023-03-16T06:47:56.905Z,63.80
2023-03-16T06:50:24.708Z,63.91
2023-03-16T06:52:52.738Z,64.23
2023-03-16T06:55:21.011Z,64.28
2023-03-16T06:57:50.046Z,64.31
2023-03-16T07:00:20.496Z,64.33
2023-03-16T07:02:48.448Z,64.48
2023-03-16T07:05:34.132Z,64.55
2023-03-16T07:08:19.772Z,64.38
2023-03-16T07:10:51.097Z,64.68
2023-03-16T07:13:21.244Z,64.56
2023-03-16T07:15:52.182Z,64.83
2023-03-16T07:18:26.134Z,64.35
2023-03-16T07:20:55.504Z,64.29
2023-03-16T07:23:25.801Z,63.83
2023-03-16T07:25:56.390Z,63.91
2023-03-16T07:28:25.623Z,63.98
2023-03-16T07:31:03.321Z,63.08
2023-03-16T07:33:36.309Z,63.37
2023-03-16T07:36:10.694Z,63.22
2023-03-16T07:38:42.690Z,62.88
2023-03-16T07:41:14.001Z,62.80
2023-03-16T07:43:46.979Z,62.41
2023-03-16T07:46:15.898Z,62.07
2023-03-16T07:48:45.428Z,62.19
2023-03-16T07:51:14.320Z,62.04
2023-03-16T07:53:43.879Z,61.41
2023-03-16T07:56:21.587Z,61.38
2023-03-16T07:58:56.230Z,60.74
2023-03-16T08:01:24.662Z,60.47
2023-03-16T08:03:53.993Z,59.85
2023-03-16T08:06:25.965Z,60.13
2023-03-16T08:08:55.226Z,60.54
2023-03-16T08:11:31.014Z,60.22
2023-03-16T08:14:04.280Z,59.36
2023-03-16T08:16:51.707Z,58.47
2023-03-16T08:19:20.542Z,58.31
2023-03-16T08:22:01.438Z,58.70
2023-03-16T08:24:37.532Z,58.22
2023-03-16T08:27:09.391Z,58.15
2023-03-16T08:29:40.761Z,58.11
2023-03-16T08:32:13.180Z,57.59
2023-03-16T08:34:45.921Z,57.90
2023-03-16T08:37:14.770Z,56.74
2023-03-16T08:39:46.733Z,56.54
2023-03-16T08:42:22.361Z,55.79
2023-03-16T08:44:56.045Z,55.61
2023-03-16T08:47:25.889Z,54.76
2023-03-16T08:49:57.398Z,53.04
2023-03-16T08:52:28.012Z,52.92
2023-03-16T08:55:03.367Z,52.67
2023-03-16T08:57:33.747Z,52.35
2023-03-16T14:02:43.925Z,23.09
2023-03-16T14:05:22.087Z,22.97
2023-03-16T14:07:51.430Z,22.69
2023-03-16T14:10:21.078Z,22.07
2023-03-16T14:12:53.569Z,22.33
2023-03-16T14:15:23.894Z,21.28
2023-03-16T14:17:52.444Z,20.35
2023-03-16T14:20:23.301Z,20.57
2023-03-16T14:22:52.788Z,20.90
2023-03-16T14:25:23.699Z,20.13
2023-03-16T14:28:06.233Z,20.24
2023-03-16T14:34:54.619Z,19.18
2023-03-16T14:37:23.037Z,18.72
2023-03-16T14:40:26.269Z,19.02
2023-03-16T14:42:56.190Z,18.78
2023-03-16T14:45:35.937Z,17.86
2023-03-16T14:48:07.420Z,17.91
2023-03-16T14:54:55.310Z,17.56
2023-03-16T14:57:23.293Z,16.90
2023-03-16T14:59:52.488Z,16.75
2023-03-16T15:02:27.168Z,16.79
2023-03-16T15:04:56.723Z,16.82
2023-03-16T15:07:26.834Z,16.43
2023-03-16T15:09:57.481Z,15.92
2023-03-16T15:12:26.210Z,16.29
2023-03-16T15:15:12.676Z,15.76
2023-03-16T15:17:40.850Z,15.08
2023-03-16T15:20:12.308Z,14.45
2023-03-16T15:22:40.644Z,14.63
2023-03-16T15:25:11.769Z,14.59
2023-03-16T15:27:39.638Z,14.61
2023-03-16T15:30:16.386Z,14.85
2023-03-16T15:32:44.550Z,14.59
2023-03-16T15:35:12.683Z,13.96
2023-03-16T15:37:40.804Z,13.54
2023-03-16T15:40:16.094Z,13.76
2023-03-16T15:42:46.789Z,13.92
2023-03-16T15:45:20.824Z,13.15
2023-03-16T15:47:50.219Z,13.09
2023-03-16T15:50:21.987Z,13.36
2023-03-16T15:52:53.569Z,12.79
2023-03-16T15:55:24.266Z,13.08
2023-03-16T15:57:58.756Z,13.00
2023-03-16T16:00:28.776Z,12.91
2023-03-16T16:02:57.856Z,12.86
2023-03-16T16:05:25.968Z,13.16
2023-03-16T16:07:54.879Z,13.19
2023-03-16T16:37:37.710Z,13.38
2023-03-16T16:40:37.260Z,14.55
2023-03-16T16:44:47.764Z,15.86
2023-03-16T19:09:16.928Z,44.46
2023-03-16T19:19:29.644Z,45.25
2023-03-16T19:49:21.796Z,46.74
2023-03-16T20:02:40.400Z,46.98
2023-03-16T20:05:16.727Z,47.36
2023-03-16T20:07:44.601Z,47.81
2023-03-16T20:10:22.300Z,48.30
2023-03-16T20:12:53.551Z,48.68
2023-03-16T20:15:22.588Z,49.01
2023-03-16T20:17:50.607Z,49.15
2023-03-16T20:20:29.794Z,49.12
2023-03-16T20:22:59.678Z,49.39
2023-03-16T20:25:32.374Z,49.53
2023-03-16T20:28:02.147Z,49.42
2023-03-16T20:30:30.834Z,49.73
2023-03-16T20:32:58.782Z,49.83
2023-03-16T20:35:31.223Z,50.19
2023-03-16T20:37:59.271Z,50.20
2023-03-16T20:40:27.060Z,50.65
2023-03-16T20:42:55.019Z,50.61
2023-03-16T20:45:27.177Z,50.42
2023-03-16T20:47:55.034Z,50.68
2023-03-16T20:50:29.282Z,50.70
2023-03-16T20:52:57.497Z,51.17
2023-03-16T20:55:27.238Z,51.28
2023-03-16T20:57:56.464Z,51.00
2023-03-16T21:00:34.695Z,51.04
2023-03-16T21:03:05.166Z,51.43
2023-03-16T21:05:33.831Z,51.36
2023-03-16T21:08:01.612Z,51.27
2023-03-16T21:10:30.900Z,51.18
2023-03-16T21:12:59.042Z,50.85
2023-03-16T21:15:30.342Z,50.51
2023-03-16T21:18:00.809Z,50.95
2023-03-16T21:20:32.118Z,50.87
2023-03-16T21:23:00.807Z,50.85
2023-03-16T21:25:30.960Z,50.67
2023-03-16T21:28:02.284Z,50.39
2023-03-16T21:30:32.069Z,50.51
2023-03-16T21:33:01.919Z,50.19
2023-03-16T21:35:35.902Z,50.02
2023-03-16T21:38:18.259Z,49.66
2023-03-16T21:40:47.128Z,49.30
2023-03-16T21:43:15.706Z,49.39
2023-03-16T21:45:44.320Z,49.33
2023-03-16T21:48:20.212Z,49.56
2023-03-16T21:50:48.544Z,49.75
2023-03-16T21:53:34.314Z,49.62
2023-03-16T21:56:02.041Z,49.98
2023-03-16T21:58:29.775Z,49.97
2023-03-16T22:00:58.504Z,49.96
2023-03-16T22:03:47.950Z,50.00
2023-03-16T22:06:18.169Z,49.96
2023-03-16T22:08:46.496Z,49.98
2023-03-16T22:11:17.325Z,50.27
2023-03-16T22:13:46.499Z,50.11
2023-03-16T22:16:17.151Z,50.17
2023-03-16T22:18:47.032Z,50.39
2023-03-16T22:21:25.612Z,50.57
2023-03-16T22:23:54.339Z,50.62
2023-03-16T22:26:23.489Z,50.51
2023-03-16T22:28:52.398Z,50.58
2023-03-16T22:31:27.694Z,50.74
2023-03-16T22:33:55.678Z,50.74
2023-03-16T22:36:23.663Z,50.67
2023-03-16T22:39:00.244Z,50.65
2023-03-16T22:41:29.720Z,50.72
2023-03-16T22:43:58.284Z,50.38
2023-03-16T22:46:27.693Z,50.74
2023-03-16T22:48:56.568Z,50.53
2023-03-16T22:51:33.466Z,50.57
2023-03-16T22:54:15.464Z,50.44
2023-03-16T22:56:44.745Z,50.52
2023-03-16T22:59:19.110Z,50.46
2023-03-16T23:01:48.744Z,50.69
2023-03-16T23:04:20.042Z,50.78
2023-03-16T23:06:52.887Z,50.56
2023-03-16T23:09:21.940Z,50.70
2023-03-16T23:11:53.912Z,50.38
2023-03-16T23:14:23.273Z,50.55
2023-03-16T23:16:52.673Z,50.71
2023-03-16T23:19:32.401Z,50.86
2023-03-16T23:22:03.531Z,50.80
2023-03-16T23:24:35.125Z,50.78
2023-03-16T23:27:04.562Z,50.67
2023-03-16T23:29:35.417Z,50.75
2023-03-16T23:32:04.451Z,50.79
2023-03-16T23:34:32.202Z,50.54
2023-03-16T23:36:59.937Z,50.27
2023-03-16T23:39:28.800Z,50.18
2023-03-16T23:41:57.465Z,50.25
2023-03-16T23:44:27.634Z,50.14
2023-03-16T23:46:55.550Z,49.94
2023-03-16T23:49:33.551Z,50.10
2023-03-16T23:52:28.244Z,50.07
2023-03-16T23:54:58.385Z,50.23
2023-03-16T23:57:27.899Z,50.11
2023-03-16T23:59:57.073Z,50.30
